Lake Tahoe Airport
KTVL : now visible

Airfield :











YOU CAN JOIN US ON...

 
LOGIN :

Register | Disclaimer

   EN    FR    IT 

 









Legend :    VFR   Marginal VFR   IFR   Intensive IFR   Very Intensive IFR
Visi :
Ceiling :
>= 8 km
>= 3000ft
5 to 8 km
1000 to 3000 ft
1500m to 5 km
500 to 1000 ft
800 to 1500m
200 to 500 ft
< 800m
< 200 ft
Symbols :   Thunderstorms  Fog  Heavy snow  Heavy precipitations  Wind > 20 kt






- Airport Elevation : 6264 ft
- IATA code : TVL


KTVL - Lake Tahoe

CURRENT METAR :
  • 250353Z AUTO VRB03KT 10SM CLR 17/08 A3023 RMK AO2 SLP184 T01670078

EXPIRED METARs :
  • 250253Z AUTO 00000KT 10SM BKN090 BKN110 17/07 A3023 RMK AO2 SLP188 T01720067 53005
  • 250153Z AUTO 00000KT 10SM CLR 19/04 A3020 RMK AO2 SLP181 T01890044

TAF KTVL
Valid from the 25 at 00:00 until the 26 at 00:00 UTC


242320Z 2500/2524 04005KT P6SM VCTS SCT060CB BKN090
FM250500 VRB03KT P6SM VCSH BKN100
FM250900 19003KT P6SM SCT120
KZOA FIR / North America



MET'MAP, your aeronautical weather chart ! - Copyright ORBIFLY December 2007 - Disclaimer

ORBIFLY MET'MAP TEAM :

Programming & Development : Alexandra Zaïnal
Concept & original design : Baudouin d'Aumeries
Assistance for programming : Marc-Olivier Méhu
Technical & hardware support : Manuel Goepfert

Contact : metmap@orbifly.com




SOURCES & CREDITS :

   NOAA       Earth
Advisory